aviador You're here:

RPMZ Decoded Metar

ZAMBOANGA in PHILIPPINES
Report Time2018-01-20 04:00:00
UTC Time2018-01-20 05:05:02
Flight Rules vfr VFR
Wind270° at 04 kt
W.Decomp.*RWY 27: 4.0 kt HW 0.1 kt LCW
W.Rank270° ranks 1
Current wind is below 270° avg. (4.6)
Visibility9999 m
Phenomena:N/A
Clouds:Few TCU 017 Hf
Broken 240 Hf
Expected CloudBase > 2,800 ft AGL from Temp-Dew spread
Ceiling24,000 ft
Temp31°C (ISA +16)
Dew Point24°C (66% RH)
Heat Index36.4°C
QNH1007 hPa
Density Alt2,448 ft
Elevation20 ft
Report Wrong Elevation
Raw Report
METAR RPMZ 200400Z 27004KT 9999 FEW017TCU BKN240 31/24 Q1007 RMK
A2974 TCU NW-NE=

Extra information for RPMZ:More info

Metar Taf Metar & Taf Last 4 Metars F.Rules Stats Wind Profile Meteogram Temp Stats Airport Information Weather charts Add Link Nearby VenuesMetar ALERT Operation Metar Decoded Social comments